Terminal Aerodrome Forecast
Issued by NWS

Home | Current Version | Previous Version | Text Only | Print | Product List | Glossary On
Versions: 1 2 3 4 5 6 7 8 9 10 11 12 13 14 15 16
000
FTUS46 KSGX 301100
TAFSNA
TAF
KSNA 301120Z 3012/0112 VRB04KT P6SM FEW012
     FM302000 22008KT P6SM SKC
     FM010300 VRB04KT P6SM SCT010
     FM010900 VRB03KT P6SM OVC009=

USA.gov is the U.S. government's official web portal to all federal, state and local government web resources and services.